createdAt,value
2024-01-12T00:00:46.690Z,73.15
2024-01-12T00:03:49.693Z,73.07
2024-01-12T00:06:18.087Z,73.07
2024-01-12T00:08:51.902Z,72.84
2024-01-12T00:11:23.369Z,72.63
2024-01-12T00:13:52.230Z,72.88
2024-01-12T00:16:22.030Z,72.94
2024-01-12T00:18:50.685Z,73.24
2024-01-12T00:21:21.624Z,73.10
2024-01-12T00:23:53.162Z,72.93
2024-01-12T00:26:33.563Z,72.69
2024-01-12T00:29:04.789Z,72.53
2024-01-12T00:31:38.704Z,72.66
2024-01-12T00:34:12.814Z,73.05
2024-01-12T00:36:41.586Z,73.23
2024-01-12T00:39:09.993Z,72.90
2024-01-12T00:41:41.966Z,72.63
2024-01-12T00:44:13.600Z,72.49
2024-01-12T00:46:45.397Z,72.40
2024-01-12T00:49:14.249Z,72.43
2024-01-12T00:51:54.390Z,72.58
2024-01-12T00:54:27.908Z,72.92
2024-01-12T00:57:01.155Z,72.61
2024-01-12T00:59:35.484Z,72.55
2024-01-12T01:02:06.748Z,72.28
2024-01-12T01:04:38.233Z,72.05
2024-01-12T01:07:26.883Z,72.07
2024-01-12T01:09:55.992Z,72.20
2024-01-12T01:12:26.977Z,72.61
2024-01-12T01:14:55.668Z,72.74
2024-01-12T01:17:29.692Z,72.42
2024-01-12T01:19:58.208Z,72.33
2024-01-12T01:22:27.059Z,72.13
2024-01-12T01:25:00.998Z,72.37
2024-01-12T01:27:43.200Z,72.07
2024-01-12T01:30:12.245Z,72.20
2024-01-12T01:32:41.643Z,72.76
2024-01-12T01:35:19.299Z,73.03
2024-01-12T01:38:08.036Z,72.89
2024-01-12T01:40:36.451Z,72.61
2024-01-12T01:43:09.732Z,72.58
2024-01-12T01:45:41.170Z,72.68
2024-01-12T01:48:10.199Z,73.15
2024-01-12T01:50:41.642Z,72.93
2024-01-12T01:53:12.594Z,72.80
2024-01-12T01:55:47.162Z,72.73
2024-01-12T01:58:17.601Z,72.91
2024-01-12T02:00:47.239Z,72.82
2024-01-12T02:03:17.113Z,72.78
2024-01-12T02:05:51.877Z,73.14
2024-01-12T02:08:24.341Z,72.86
2024-01-12T02:10:53.728Z,72.53
2024-01-12T02:13:22.300Z,72.42
2024-01-12T02:15:51.063Z,72.85
2024-01-12T02:18:19.610Z,72.86
2024-01-12T02:20:49.573Z,72.78
2024-01-12T02:23:20.854Z,72.91
2024-01-12T02:25:49.823Z,72.74
2024-01-12T02:28:21.285Z,72.26
2024-01-12T02:30:54.968Z,72.31
2024-01-12T02:33:23.551Z,72.56
2024-01-12T02:36:32.164Z,72.54
2024-01-12T02:40:21.166Z,72.81
2024-01-12T02:43:54.028Z,72.58
2024-01-12T02:47:31.888Z,72.27
2024-01-12T03:51:11.560Z,72.64
2024-01-12T03:54:40.048Z,73.04
2024-01-12T03:58:28.970Z,72.84
2024-01-12T04:02:18.255Z,72.53
2024-01-12T04:13:35.801Z,72.64
2024-01-12T04:17:24.673Z,72.70
2024-01-12T04:21:13.417Z,72.52
2024-01-12T04:24:47.692Z,72.88
2024-01-12T04:28:28.314Z,72.43
2024-01-12T04:47:44.627Z,71.75
2024-01-12T04:51:16.120Z,72.28
2024-01-12T04:54:41.277Z,72.15
2024-01-12T04:58:12.706Z,71.69
2024-01-12T05:01:51.917Z,71.95
2024-01-12T05:04:32.483Z,72.11
2024-01-12T05:11:34.894Z,71.85
2024-01-12T05:14:08.792Z,72.00
2024-01-12T05:22:37.803Z,71.28
2024-01-12T05:25:24.803Z,71.29
2024-01-12T05:27:53.094Z,71.23
2024-01-12T05:30:21.800Z,71.50
2024-01-12T05:32:50.000Z,71.66
2024-01-12T05:35:21.912Z,71.63
2024-01-12T05:37:50.467Z,71.48
2024-01-12T05:40:22.982Z,71.51
2024-01-12T05:42:51.144Z,71.40
2024-01-12T05:45:21.775Z,71.20
2024-01-12T05:47:50.239Z,71.71
2024-01-12T05:50:18.714Z,71.96
2024-01-12T05:52:50.192Z,72.05
2024-01-12T05:55:21.635Z,71.83
2024-01-12T05:57:49.895Z,71.71
2024-01-12T06:00:18.807Z,71.93
2024-01-12T06:02:47.617Z,71.52
2024-01-12T06:05:16.517Z,71.53
2024-01-12T06:07:45.838Z,71.92
2024-01-12T06:10:14.378Z,72.58
2024-01-12T06:12:42.875Z,72.56
2024-01-12T06:15:11.598Z,72.26
2024-01-12T06:17:40.537Z,72.14
2024-01-12T06:20:09.435Z,71.81
2024-01-12T06:22:37.724Z,71.77
2024-01-12T06:25:06.577Z,71.48
2024-01-12T06:27:34.927Z,71.80
2024-01-12T06:30:03.472Z,72.07
2024-01-12T06:32:32.042Z,72.50
2024-01-12T06:35:00.541Z,72.31
2024-01-12T06:37:28.776Z,72.17
2024-01-12T06:39:59.047Z,72.03
2024-01-12T06:42:29.180Z,72.04
2024-01-12T06:44:57.857Z,71.87
2024-01-12T06:47:26.486Z,71.84
2024-01-12T06:49:55.811Z,71.95
2024-01-12T06:52:24.268Z,72.18
2024-01-12T06:54:52.829Z,72.39
2024-01-12T06:57:21.492Z,72.32
2024-01-12T06:59:53.094Z,72.22
2024-01-12T07:02:22.025Z,72.34
2024-01-12T07:04:50.497Z,72.21
2024-01-12T07:07:18.967Z,72.33
2024-01-12T07:09:47.178Z,72.65
2024-01-12T07:12:15.581Z,72.88
2024-01-12T07:14:44.123Z,72.61
2024-01-12T07:17:12.396Z,72.45
2024-01-12T07:19:45.099Z,72.30
2024-01-12T07:22:13.581Z,72.46
2024-01-12T07:24:44.912Z,72.04
2024-01-12T07:27:13.409Z,72.28
2024-01-12T07:29:42.380Z,72.66
2024-01-12T07:32:31.164Z,72.67
2024-01-12T07:35:26.174Z,72.30
2024-01-12T07:38:05.053Z,72.24
2024-01-12T07:40:44.246Z,71.75
2024-01-12T07:43:35.168Z,71.89
2024-01-12T07:46:08.537Z,71.96
2024-01-12T07:49:04.146Z,71.79
2024-01-12T07:51:32.593Z,72.09
2024-01-12T07:54:17.462Z,72.21
2024-01-12T07:57:08.365Z,71.86
2024-01-12T07:59:59.893Z,71.53
2024-01-12T08:03:08.862Z,71.21
2024-01-12T08:06:04.795Z,71.19
2024-01-12T08:08:57.574Z,71.16
2024-01-12T08:11:49.115Z,71.18
2024-01-12T08:14:51.987Z,71.36
2024-01-12T08:17:45.309Z,71.90
2024-01-12T08:20:15.708Z,71.65
2024-01-12T08:22:44.055Z,71.40
2024-01-12T08:25:14.774Z,71.12
2024-01-12T08:27:46.717Z,71.24
2024-01-12T08:30:15.185Z,70.96
2024-01-12T08:32:52.632Z,70.74
2024-01-12T08:35:21.305Z,70.70
2024-01-12T08:37:51.973Z,70.48
2024-01-12T08:40:20.151Z,70.53
2024-01-12T08:42:49.209Z,70.74
2024-01-12T08:45:19.463Z,70.68
2024-01-12T08:47:47.765Z,70.12
2024-01-12T08:50:18.711Z,69.93
2024-01-12T08:52:59.632Z,69.75
2024-01-12T08:55:27.964Z,69.28
2024-01-12T08:58:04.110Z,69.51
2024-01-12T09:00:53.247Z,69.57
2024-01-12T09:03:27.671Z,69.36
2024-01-12T09:05:59.405Z,68.95
2024-01-12T09:08:28.239Z,69.14
2024-01-12T09:11:00.103Z,69.08
2024-01-12T09:13:36.349Z,69.29
2024-01-12T09:16:04.954Z,68.93
2024-01-12T09:18:33.390Z,68.77
2024-01-12T09:21:22.097Z,68.85
2024-01-12T09:23:50.218Z,68.20
2024-01-12T09:26:21.154Z,68.16
2024-01-12T09:28:49.626Z,68.34
2024-01-12T09:31:18.470Z,67.94
2024-01-12T09:33:47.380Z,67.74
2024-01-12T09:36:16.018Z,67.47
2024-01-12T09:38:44.596Z,67.45
2024-01-12T09:41:15.108Z,67.22
2024-01-12T09:43:44.614Z,67.13
2024-01-12T09:46:17.768Z,67.53
2024-01-12T09:48:46.224Z,67.00
2024-01-12T09:51:19.330Z,67.00
2024-01-12T09:53:48.668Z,66.59
2024-01-12T09:56:18.319Z,66.32
2024-01-12T09:58:50.125Z,66.06
2024-01-12T10:01:21.744Z,66.18
2024-01-12T10:03:51.711Z,66.14
2024-01-12T10:06:20.080Z,66.33
2024-01-12T10:08:48.755Z,66.65
2024-01-12T10:11:17.146Z,66.98
2024-01-12T10:13:46.068Z,66.98
2024-01-12T10:16:14.804Z,67.13
2024-01-12T10:18:43.875Z,66.59
2024-01-12T10:21:12.222Z,66.70
2024-01-12T10:23:41.023Z,66.52
2024-01-12T10:26:10.625Z,66.36
2024-01-12T10:28:38.784Z,66.14
2024-01-12T10:31:09.066Z,66.07
2024-01-12T10:33:58.076Z,66.01
2024-01-12T10:37:26.686Z,66.28
2024-01-12T10:40:20.864Z,66.51
2024-01-12T10:43:36.171Z,66.22
2024-01-12T10:46:33.705Z,65.88
2024-01-12T10:49:27.034Z,65.77
2024-01-12T10:52:41.689Z,66.03
2024-01-12T10:56:13.865Z,65.50
2024-01-12T10:59:28.435Z,65.82
2024-01-12T11:02:06.645Z,65.63
2024-01-12T11:04:46.662Z,65.19
2024-01-12T11:07:16.331Z,65.60
2024-01-12T11:10:02.363Z,65.69
2024-01-12T11:12:41.925Z,65.16
2024-01-12T11:15:32.713Z,64.95
2024-01-12T11:18:06.680Z,64.75
2024-01-12T11:20:40.758Z,64.43
2024-01-12T11:23:20.735Z,64.50
2024-01-12T11:25:51.605Z,64.43
2024-01-12T11:28:19.816Z,64.49
2024-01-12T11:30:54.831Z,64.50
2024-01-12T11:33:49.243Z,64.37
2024-01-12T11:36:32.426Z,64.59
2024-01-12T11:39:06.526Z,64.90
2024-01-12T11:41:35.115Z,64.62
2024-01-12T11:44:09.441Z,63.63
2024-01-12T11:46:52.325Z,63.89
2024-01-12T11:49:44.124Z,64.17
2024-01-12T11:53:02.070Z,64.55
2024-01-12T11:56:18.708Z,64.36
2024-01-12T11:59:03.725Z,64.31
2024-01-12T12:02:12.158Z,64.46
2024-01-12T12:05:15.157Z,64.66
2024-01-12T12:07:52.357Z,65.00
2024-01-12T12:10:33.387Z,65.04
2024-01-12T12:14:12.127Z,65.13
2024-01-12T12:16:40.779Z,64.92
2024-01-12T12:19:28.278Z,64.67
2024-01-12T12:22:17.897Z,64.34
2024-01-12T12:25:29.563Z,64.57
2024-01-12T12:28:29.597Z,64.37
2024-01-12T12:32:00.995Z,64.26
2024-01-12T12:35:01.244Z,64.41
2024-01-12T12:38:27.088Z,64.67
2024-01-12T12:41:08.998Z,64.34
2024-01-12T12:44:29.478Z,64.19
2024-01-12T12:47:22.143Z,63.80
2024-01-12T12:50:40.055Z,64.12
2024-01-12T12:53:57.851Z,63.81
2024-01-12T12:57:09.080Z,64.15
2024-01-12T13:00:07.602Z,64.53
2024-01-12T13:02:42.530Z,64.41
2024-01-12T13:05:54.019Z,64.57
2024-01-12T13:08:57.252Z,64.40
2024-01-12T13:11:49.413Z,64.80
2024-01-12T13:14:36.657Z,64.41
2024-01-12T13:17:12.505Z,64.60
2024-01-12T13:19:48.470Z,64.89
2024-01-12T13:22:22.945Z,65.41
2024-01-12T13:24:51.201Z,65.28
2024-01-12T13:27:19.777Z,65.03
2024-01-12T13:29:51.073Z,64.55
2024-01-12T13:32:22.658Z,64.46
2024-01-12T13:34:54.151Z,64.46
2024-01-12T13:37:22.727Z,64.53
2024-01-12T13:39:51.235Z,64.66
2024-01-12T13:42:20.361Z,64.70
2024-01-12T13:44:48.798Z,65.13
2024-01-12T13:47:16.967Z,65.22
2024-01-12T13:50:00.512Z,64.77
2024-01-12T13:52:32.228Z,64.83
2024-01-12T13:55:06.430Z,64.51
2024-01-12T13:57:43.196Z,64.27
2024-01-12T14:00:32.642Z,64.52
2024-01-12T14:03:12.826Z,64.52
2024-01-12T14:05:49.766Z,64.56
2024-01-12T14:08:25.774Z,64.77
2024-01-12T14:10:57.519Z,64.82
2024-01-12T14:13:42.832Z,64.99
2024-01-12T14:16:27.886Z,64.82
2024-01-12T14:18:56.598Z,64.54
2024-01-12T14:21:25.379Z,64.60
2024-01-12T14:24:18.038Z,64.62
2024-01-12T14:26:54.771Z,64.85
2024-01-12T14:29:26.072Z,64.60
2024-01-12T14:32:11.218Z,64.66
2024-01-12T14:34:46.280Z,64.72
2024-01-12T14:37:18.197Z,64.81
2024-01-12T14:39:56.681Z,65.39
2024-01-12T14:42:38.833Z,65.54
2024-01-12T14:45:16.976Z,65.13
2024-01-12T14:47:46.713Z,65.13
2024-01-12T14:50:23.449Z,65.00
2024-01-12T14:53:14.746Z,64.84
2024-01-12T14:55:46.114Z,65.05
2024-01-12T14:58:34.890Z,65.11
2024-01-12T15:01:22.919Z,65.04
2024-01-12T15:04:19.576Z,65.17
2024-01-12T15:07:34.337Z,65.22
2024-01-12T15:10:43.464Z,65.96
2024-01-12T15:13:53.509Z,66.05
2024-01-12T15:17:05.041Z,65.85
2024-01-12T15:19:53.899Z,65.46
2024-01-12T15:23:09.524Z,65.11
2024-01-12T15:26:10.184Z,65.35
2024-01-12T15:29:18.465Z,65.44
2024-01-12T15:32:50.403Z,65.84
2024-01-12T15:35:29.386Z,65.61
2024-01-12T15:37:57.812Z,66.23
2024-01-12T15:40:25.991Z,66.31
2024-01-12T15:42:56.722Z,66.19
2024-01-12T15:45:34.626Z,66.14
2024-01-12T15:48:06.652Z,66.52
2024-01-12T15:50:38.151Z,66.48
2024-01-12T15:53:06.614Z,66.96
2024-01-12T15:55:34.778Z,67.59
2024-01-12T15:58:07.993Z,68.17
2024-01-12T16:00:36.583Z,68.54
2024-01-12T16:03:05.257Z,68.80
2024-01-12T16:05:38.889Z,69.52
2024-01-12T16:08:10.402Z,70.17
2024-01-12T16:10:41.719Z,70.90
2024-01-12T16:13:10.160Z,71.63
2024-01-12T16:15:38.800Z,72.42
2024-01-12T16:18:07.302Z,72.26
2024-01-12T16:20:38.864Z,71.76
2024-01-12T16:23:09.670Z,71.18
2024-01-12T16:25:57.944Z,71.70
2024-01-12T16:28:30.429Z,72.39
2024-01-12T16:31:01.774Z,72.42
2024-01-12T16:33:50.929Z,72.09
2024-01-12T16:36:19.405Z,72.67
2024-01-12T16:38:50.423Z,73.07
2024-01-12T16:41:27.632Z,73.07
2024-01-12T16:43:56.193Z,72.24
2024-01-12T16:46:24.652Z,71.91
2024-01-12T16:48:56.642Z,71.70
2024-01-12T16:51:25.357Z,71.32
2024-01-12T16:53:53.972Z,70.92
2024-01-12T16:56:25.130Z,70.71
2024-01-12T16:58:53.551Z,70.76
2024-01-12T17:01:32.208Z,70.64
2024-01-12T17:04:16.120Z,70.79
2024-01-12T17:07:10.882Z,70.83
2024-01-12T17:09:39.343Z,70.91
2024-01-12T17:12:07.754Z,71.40
2024-01-12T17:14:37.889Z,71.70
2024-01-12T17:17:16.246Z,71.83
2024-01-12T17:20:14.718Z,71.36
2024-01-12T17:23:06.266Z,71.08
2024-01-12T17:25:37.821Z,70.77
2024-01-12T17:28:13.712Z,71.25
2024-01-12T17:30:55.664Z,71.22
2024-01-12T17:33:23.965Z,71.42
2024-01-12T17:36:15.578Z,71.96
2024-01-12T17:38:54.239Z,72.10
2024-01-12T17:41:29.029Z,71.39
2024-01-12T17:43:58.728Z,71.37
2024-01-12T17:46:29.843Z,71.47
2024-01-12T17:49:07.622Z,71.50
2024-01-12T17:51:40.374Z,71.53
2024-01-12T17:54:31.819Z,71.53
2024-01-12T17:57:01.016Z,71.61
2024-01-12T18:00:07.810Z,71.45
2024-01-12T18:03:21.480Z,71.48
2024-01-12T18:06:17.335Z,71.61
2024-01-12T18:09:15.294Z,71.61
2024-01-12T18:11:44.352Z,71.89
2024-01-12T18:14:18.091Z,72.02
2024-01-12T18:16:46.392Z,71.92
2024-01-12T18:19:35.280Z,72.35
2024-01-12T18:22:26.704Z,72.53
2024-01-12T18:24:55.451Z,72.71
2024-01-12T18:27:34.284Z,72.51
2024-01-12T18:30:14.279Z,72.38
2024-01-12T18:32:52.010Z,72.69
2024-01-12T18:36:09.389Z,73.12
2024-01-12T18:39:00.748Z,73.28
2024-01-12T18:41:32.222Z,73.41
2024-01-12T18:44:02.630Z,73.42
2024-01-12T18:46:36.355Z,73.65
2024-01-12T18:49:10.580Z,73.71
2024-01-12T18:52:02.894Z,73.76
2024-01-12T18:54:36.560Z,73.66
2024-01-12T18:57:27.451Z,73.98
2024-01-12T19:00:07.512Z,73.73
2024-01-12T19:03:11.457Z,73.08
2024-01-12T19:05:46.719Z,73.02
2024-01-12T19:08:15.594Z,72.75
2024-01-12T19:10:48.863Z,71.66
2024-01-12T19:13:30.672Z,71.33
2024-01-12T19:16:09.985Z,71.61
2024-01-12T19:19:05.735Z,71.36
2024-01-12T19:22:14.465Z,71.36
2024-01-12T19:25:10.485Z,71.21
2024-01-12T19:27:56.460Z,71.60
2024-01-12T19:31:10.025Z,71.93
2024-01-12T19:34:00.773Z,71.49
2024-01-12T19:36:37.111Z,70.90
2024-01-12T19:39:07.852Z,70.18
2024-01-12T19:41:41.734Z,69.78
2024-01-12T19:44:21.597Z,68.91
2024-01-12T19:46:55.599Z,68.04
2024-01-12T19:49:27.085Z,68.34
2024-01-12T19:52:14.245Z,68.77
2024-01-12T19:54:58.221Z,68.77
2024-01-12T19:57:27.638Z,68.23
2024-01-12T20:00:18.935Z,67.78
2024-01-12T20:03:12.776Z,67.42
2024-01-12T20:06:04.966Z,66.83
2024-01-12T20:08:41.755Z,67.58
2024-01-12T20:11:13.163Z,67.87
2024-01-12T20:13:51.891Z,68.26
2024-01-12T20:16:37.050Z,67.63
2024-01-12T20:19:48.842Z,67.78
2024-01-12T20:22:51.480Z,67.80
2024-01-12T20:25:49.690Z,67.70
2024-01-12T20:28:37.142Z,66.62
2024-01-12T20:31:11.038Z,66.56
2024-01-12T20:34:14.664Z,66.27
2024-01-12T20:38:03.488Z,66.38
2024-01-12T20:41:17.627Z,66.52
2024-01-12T20:44:43.279Z,65.78
2024-01-12T20:48:00.314Z,65.58
2024-01-12T20:51:21.699Z,64.63
2024-01-12T20:54:28.741Z,64.20
2024-01-12T20:57:11.569Z,64.52
2024-01-12T20:59:59.062Z,63.41
2024-01-12T21:02:36.949Z,63.90
2024-01-12T21:05:16.671Z,63.72
2024-01-12T21:08:16.038Z,63.54
2024-01-12T21:11:04.777Z,63.46
2024-01-12T21:13:51.670Z,63.24
2024-01-12T21:16:23.395Z,63.32
2024-01-12T21:19:46.874Z,63.73
2024-01-12T21:22:33.921Z,63.30
2024-01-12T21:26:01.193Z,63.48
2024-01-12T21:28:51.801Z,62.86
2024-01-12T21:32:13.115Z,62.70
2024-01-12T21:35:10.211Z,63.29
2024-01-12T21:38:01.040Z,63.40
2024-01-12T21:40:31.682Z,63.45
2024-01-12T21:43:07.547Z,62.88
2024-01-12T21:46:11.592Z,63.04
2024-01-12T21:49:11.070Z,63.32
2024-01-12T21:52:28.374Z,63.52
2024-01-12T21:55:39.526Z,63.36
2024-01-12T21:58:21.994Z,63.54
2024-01-12T22:01:20.270Z,63.80
2024-01-12T22:04:28.511Z,63.33
2024-01-12T22:07:28.966Z,63.42
2024-01-12T22:11:17.648Z,64.12
2024-01-12T22:14:15.043Z,64.10
2024-01-12T22:16:55.928Z,63.95
2024-01-12T22:19:31.756Z,64.49
2024-01-12T22:22:12.730Z,64.72
2024-01-12T22:25:06.021Z,64.45
2024-01-12T22:27:40.849Z,64.33
2024-01-12T22:30:20.926Z,64.42
2024-01-12T22:33:39.552Z,64.72
2024-01-12T22:36:51.026Z,65.33
2024-01-12T22:39:50.054Z,65.13
2024-01-12T22:42:38.481Z,65.13
2024-01-12T22:45:10.367Z,64.91
2024-01-12T22:47:44.333Z,65.25
2024-01-12T22:50:23.121Z,65.16
2024-01-12T22:52:51.496Z,65.11
2024-01-12T22:55:19.855Z,64.85
2024-01-12T22:57:53.767Z,64.65
2024-01-12T23:00:42.456Z,64.77
2024-01-12T23:03:31.336Z,65.01
2024-01-12T23:06:22.368Z,65.23
2024-01-12T23:08:51.505Z,65.32
2024-01-12T23:11:45.758Z,65.71
2024-01-12T23:14:27.166Z,65.32
2024-01-12T23:17:18.014Z,65.46
2024-01-12T23:20:20.521Z,65.45
2024-01-12T23:23:13.911Z,65.53
2024-01-12T23:26:23.072Z,65.84
2024-01-12T23:29:54.659Z,65.84
2024-01-12T23:33:26.193Z,65.94
2024-01-12T23:36:35.197Z,65.82
2024-01-12T23:39:43.525Z,65.73
2024-01-12T23:42:52.378Z,65.87
2024-01-12T23:45:59.906Z,65.72
2024-01-12T23:48:56.851Z,65.56
